| time (UTC) | temp F | wind direction | speed knots | gust knots | rain 1hr in | rain 24hr in | rain mn in | humidity % | barometer mb |
| 20260506180316 | 68 | 272 | 4.3 | 5.2 | 0.00 | 0.00 | 0.00 | 64 | 1019.2 |
| 20260506175812 | 69 | 295 | 6.1 | 7.0 | 0.00 | 0.00 | 0.00 | 64 | 1019.0 |
| 20260506175309 | 67 | 284 | 2.6 | 2.6 | 0.00 | 0.00 | 0.00 | 68 | 1019.3 |
| 20260506174807 | 67 | 253 | 3.5 | 5.2 | 0.00 | 0.00 | 0.00 | 65 | 1019.2 |
| 20260506174303 | 67 | 295 | 0.9 | 1.7 | 0.00 | 0.00 | 0.00 | 65 | 1019.2 |
| 20260506173801 | 68 | 320 | 1.7 | 2.6 | 0.00 | 0.00 | 0.00 | 65 | 1019.1 |
| 20260506173258 | 67 | 12 | 3.5 | 4.3 | 0.00 | 0.00 | 0.00 | 66 | 1019.1 |
| 20260506172754 | 67 | 327 | 1.7 | 1.7 | 0.00 | 0.00 | 0.00 | 69 | 1019.2 |
| 20260506172251 | 66 | 294 | 3.5 | 5.2 | 0.00 | 0.00 | 0.00 | 69 | 1019.1 |
| 20260506171749 | 65 | 296 | 4.3 | 5.2 | 0.00 | 0.00 | 0.00 | 70 | 1019.1 |
| 20260506171246 | 65 | 292 | 2.6 | 2.6 | 0.00 | 0.00 | 0.00 | 70 | 1019.2 |
| 20260506170743 | 65 | 297 | 4.3 | 5.2 | 0.00 | 0.00 | 0.00 | 71 | 1019.2 |
| 20260506170239 | 65 | 1 | 3.5 | 4.3 | 0.00 | 0.00 | 0.00 | 69 | 1019.4 |
| 20260506165738 | 64 | 282 | 3.5 | 4.3 | 0.00 | 0.00 | 0.00 | 71 | 1019.4 |
| 20260506165235 | 64 | 328 | 1.7 | 1.7 | 0.00 | 0.00 | 0.00 | 71 | 1019.1 |
| 20260506164732 | 65 | 326 | 4.3 | 5.2 | 0.00 | 0.00 | 0.00 | 71 | 1019.5 |
| 20260506164229 | 64 | 17 | 3.5 | 4.3 | 0.00 | 0.00 | 0.00 | 72 | 1019.4 |
| 20260506163726 | 63 | 288 | 1.7 | 1.7 | 0.00 | 0.00 | 0.00 | 74 | 1019.3 |
| 20260506163220 | 63 | 300 | 3.5 | 5.2 | 0.00 | 0.00 | 0.00 | 73 | 1019.3 |
| 20260506162717 | 62 | 283 | 3.5 | 4.3 | 0.00 | 0.00 | 0.00 | 75 | 1019.0 |
| 20260506162214 | 62 | 287 | 2.6 | 2.6 | 0.00 | 0.00 | 0.00 | 75 | 1019.3 |
| 20260506161711 | 63 | 9 | 2.6 | 4.3 | 0.00 | 0.00 | 0.00 | 74 | 1019.3 |
| 20260506161208 | 62 | 302 | 2.6 | 4.3 | 0.00 | 0.00 | 0.00 | 75 | 1019.4 |
| 20260506160700 | 61 | 303 | 6.1 | 7.0 | 0.00 | 0.00 | 0.00 | 76 | 1019.4 |
| 20260506160157 | 62 | 311 | 7.8 | 7.8 | 0.00 | 0.00 | 0.00 | 75 | 1019.3 |
| 20260506155655 | 61 | 327 | 3.5 | 4.3 | 0.00 | 0.00 | 0.00 | 76 | 1019.6 |
| 20260506155152 | 60 | 11 | 2.6 | 4.3 | 0.00 | 0.00 | 0.00 | 78 | 1019.2 |
| 20260506153254 | 60 | 310 | 1.7 | 2.6 | 0.00 | 0.00 | 0.00 | 79 | 1019.5 |
| 20260506152751 | 60 | 314 | 3.5 | 5.2 | 0.00 | 0.00 | 0.00 | 80 | 1019.5 |
| 20260506152248 | 60 | 353 | 2.6 | 2.6 | 0.00 | 0.00 | 0.00 | 81 | 1019.4 |
| 20260506151747 | 59 | 9 | 2.6 | 4.3 | 0.00 | 0.00 | 0.00 | 81 | 1019.4 |
| 20260506151243 | 59 | 26 | 2.6 | 4.3 | 0.00 | 0.00 | 0.00 | 82 | 1019.5 |
| 20260506150740 | 58 | 327 | 2.6 | 4.3 | 0.00 | 0.00 | 0.00 | 83 | 1019.6 |
| 20260506150237 | 58 | 336 | 2.6 | 4.3 | 0.00 | 0.00 | 0.00 | 83 | 1019.5 |
| 20260506145734 | 58 | 4 | 1.7 | 2.6 | 0.00 | 0.00 | 0.00 | 84 | 1019.5 |
| 20260506145230 | 57 | 330 | 2.6 | 4.3 | 0.00 | 0.00 | 0.00 | 85 | 1019.6 |
| 20260506144728 | 57 | 308 | 2.6 | 2.6 | 0.00 | 0.00 | 0.00 | 85 | 1019.5 |
| 20260506144225 | 57 | 327 | 3.5 | 4.3 | 0.00 | 0.00 | 0.00 | 86 | 1019.6 |
| 20260506143722 | 56 | 339 | 1.7 | 1.7 | 0.00 | 0.00 | 0.00 | 87 | 1019.6 |
| 20260506143220 | 56 | 299 | 2.6 | 2.6 | 0.00 | 0.00 | 0.00 | 88 | 1019.3 |
| 20260506142718 | 55 | 291 | 3.5 | 4.3 | 0.00 | 0.00 | 0.00 | 88 | 1019.4 |
| 20260506142216 | 55 | 295 | 2.6 | 2.6 | 0.00 | 0.00 | 0.00 | 89 | 1019.4 |
| 20260506141714 | 54 | 289 | 3.5 | 4.3 | 0.00 | 0.00 | 0.00 | 90 | 1019.2 |
| 20260506141212 | 54 | 296 | 3.5 | 5.2 | 0.00 | 0.00 | 0.00 | 90 | 1019.2 |
| 20260506140709 | 53 | 303 | 2.6 | 2.6 | 0.00 | 0.00 | 0.00 | 90 | 1019.2 |
| 20260506140206 | 53 | 308 | 2.6 | 2.6 | 0.00 | 0.00 | 0.00 | 90 | 1019.2 |
| 20260506135703 | 53 | 309 | 1.7 | 1.7 | 0.00 | 0.00 | 0.00 | 90 | 1018.9 |
| 20260506135159 | 53 | 304 | 2.6 | 2.6 | 0.00 | 0.00 | 0.00 | 90 | 1018.9 |
| 20260506134656 | 53 | 312 | 0.9 | 0.9 | 0.00 | 0.00 | 0.00 | 90 | 1018.9 |
| 20260506134152 | 53 | 320 | 0.9 | 0.9 | 0.00 | 0.00 | 0.00 | 91 | 1018.6 |
| 20260506133649 | 53 | 307 | 0.0 | 0.0 | 0.00 | 0.00 | 0.00 | 91 | 1018.8 |
| 20260506133146 | 53 | 306 | 0.0 | 0.0 | 0.00 | 0.00 | 0.00 | 91 | 1018.6 |
| 20260506132643 | 53 | 306 | 0.0 | 0.0 | 0.00 | 0.00 | 0.00 | 91 | 1018.6 |
| 20260506132140 | 53 | 307 | 0.9 | 1.7 | 0.00 | 0.00 | 0.00 | 91 | 1018.6 |
| 20260506131638 | 52 | 308 | 1.7 | 1.7 | 0.00 | 0.00 | 0.00 | 91 | 1018.6 |
| 20260506131134 | 53 | 308 | 1.7 | 1.7 | 0.00 | 0.00 | 0.00 | 91 | 1018.6 |
| 20260506130631 | 53 | 307 | 0.0 | 0.0 | 0.00 | 0.00 | 0.00 | 91 | 1018.4 |
| 20260506130128 | 53 | 307 | 0.0 | 0.0 | 0.00 | 0.00 | 0.00 | 91 | 1018.2 |
| 20260506125626 | 53 | 302 | 0.9 | 0.9 | 0.00 | 0.00 | 0.00 | 91 | 1018.3 |
| 20260506125123 | 53 | 301 | 0.0 | 0.0 | 0.00 | 0.00 | 0.00 | 91 | 1018.4 |
| 20260506124621 | 53 | 301 | 0.9 | 0.9 | 0.00 | 0.00 | 0.00 | 91 | 1018.4 |
| 20260506124119 | 53 | 300 | 0.9 | 1.7 | 0.00 | 0.00 | 0.00 | 91 | 1018.3 |
| 20260506123616 | 53 | 301 | 0.0 | 0.0 | 0.00 | 0.00 | 0.00 | 91 | 1018.1 |
| 20260506123115 | 53 | 300 | 0.0 | 0.0 | 0.00 | 0.00 | 0.00 | 91 | 1018.2 |
| 20260506122611 | 53 | 300 | 0.0 | 0.9 | 0.00 | 0.00 | 0.00 | 90 | 1018.3 |
| 20260506122109 | 53 | 300 | 0.0 | 0.0 | 0.00 | 0.00 | 0.00 | 90 | 1018.1 |
| 20260506121606 | 54 | 300 | 1.7 | 1.7 | 0.00 | 0.00 | 0.00 | 89 | 1018.1 |
| 20260506121102 | 54 | 300 | 1.7 | 2.6 | 0.00 | 0.00 | 0.00 | 89 | 1017.9 |
| 20260506120601 | 54 | 308 | 0.9 | 1.7 | 0.00 | 0.00 | 0.00 | 89 | 1017.9 |
| 20260506120057 | 54 | 308 | 0.9 | 1.7 | 0.00 | 0.00 | 0.00 | 89 | 1018.0 |
| 20260506115556 | 54 | 308 | 0.9 | 0.9 | 0.00 | 0.00 | 0.00 | 89 | 1017.9 |
| 20260506115054 | 54 | 331 | 0.9 | 0.9 | 0.00 | 0.00 | 0.00 | 89 | 1017.6 |
| 20260506114551 | 54 | 311 | 0.0 | 0.0 | 0.00 | 0.00 | 0.00 | 90 | 1017.8 |
| 20260506114049 | 54 | 312 | 0.9 | 0.9 | 0.00 | 0.00 | 0.00 | 90 | 1018.0 |
| 20260506113547 | 53 | 312 | 0.9 | 0.9 | 0.00 | 0.00 | 0.00 | 90 | 1017.8 |
| 20260506113044 | 53 | 312 | 0.0 | 0.0 | 0.00 | 0.00 | 0.00 | 90 | 1017.9 |
| 20260506112540 | 53 | 316 | 0.0 | 0.0 | 0.00 | 0.00 | 0.00 | 90 | 1017.9 |
| 20260506112038 | 53 | 319 | 0.0 | 0.0 | 0.00 | 0.00 | 0.00 | 90 | 1018.0 |
| 20260506111536 | 53 | 320 | 0.0 | 0.0 | 0.00 | 0.00 | 0.00 | 90 | 1017.9 |
| 20260506111032 | 53 | 320 | 0.0 | 0.0 | 0.00 | 0.00 | 0.00 | 90 | 1018.0 |
| 20260506110530 | 53 | 328 | 0.0 | 0.0 | 0.00 | 0.00 | 0.00 | 90 | 1018.0 |
| 20260506110027 | 53 | 347 | 0.0 | 0.0 | 0.00 | 0.00 | 0.00 | 90 | 1018.0 |
| 20260506105523 | 53 | 309 | 0.0 | 0.0 | 0.00 | 0.00 | 0.00 | 90 | 1018.2 |
| 20260506105021 | 53 | 310 | 0.9 | 0.9 | 0.00 | 0.00 | 0.00 | 90 | 1018.0 |
| 20260506104519 | 54 | 302 | 1.7 | 1.7 | 0.00 | 0.00 | 0.00 | 90 | 1017.8 |
| 20260506104016 | 54 | 309 | 0.9 | 1.7 | 0.00 | 0.00 | 0.00 | 90 | 1018.0 |
| 20260506103513 | 54 | 325 | 1.7 | 1.7 | 0.00 | 0.00 | 0.00 | 90 | 1017.8 |
| 20260506103010 | 54 | 327 | 0.9 | 0.9 | 0.00 | 0.00 | 0.00 | 90 | 1017.8 |
| 20260506102509 | 54 | 328 | 0.9 | 0.9 | 0.00 | 0.00 | 0.00 | 90 | 1017.7 |
| 20260506102005 | 54 | 349 | 0.9 | 0.9 | 0.00 | 0.00 | 0.00 | 90 | 1017.6 |
| 20260506101502 | 54 | 11 | 0.9 | 0.9 | 0.00 | 0.00 | 0.00 | 89 | 1017.8 |
| 20260506100959 | 54 | 0 | 1.7 | 1.7 | 0.00 | 0.00 | 0.00 | 89 | 1017.6 |
| 20260506100457 | 54 | 11 | 0.9 | 0.9 | 0.00 | 0.00 | 0.00 | 89 | 1017.6 |
| 20260506095955 | 54 | 4 | 2.6 | 2.6 | 0.00 | 0.00 | 0.00 | 89 | 1017.8 |
| 20260506095453 | 54 | 11 | 0.9 | 1.7 | 0.00 | 0.00 | 0.00 | 89 | 1017.8 |
| 20260506094943 | 54 | 10 | 1.7 | 1.7 | 0.00 | 0.00 | 0.00 | 88 | 1017.5 |
| 20260506094441 | 55 | 11 | 1.7 | 1.7 | 0.00 | 0.00 | 0.00 | 88 | 1017.8 |
| 20260506093939 | 55 | 334 | 3.5 | 4.3 | 0.00 | 0.00 | 0.00 | 87 | 1017.7 |
| 20260506093437 | 55 | 12 | 1.7 | 1.7 | 0.00 | 0.00 | 0.00 | 87 | 1017.5 |
| 20260506092934 | 55 | 7 | 2.6 | 2.6 | 0.00 | 0.00 | 0.00 | 87 | 1017.5 |
| 20260506092432 | 55 | 305 | 0.9 | 0.9 | 0.00 | 0.00 | 0.00 | 87 | 1017.3 |
| 20260506091928 | 55 | 308 | 0.0 | 0.9 | 0.00 | 0.00 | 0.00 | 87 | 1017.4 |
| 20260506091427 | 55 | 308 | 0.9 | 0.9 | 0.00 | 0.00 | 0.00 | 87 | 1017.1 |
| 20260506090923 | 55 | 298 | 2.6 | 2.6 | 0.00 | 0.00 | 0.00 | 87 | 1017.4 |
| 20260506090421 | 55 | 296 | 0.9 | 1.7 | 0.00 | 0.00 | 0.00 | 87 | 1017.1 |
| 20260506085918 | 55 | 322 | 2.6 | 2.6 | 0.00 | 0.00 | 0.00 | 87 | 1016.9 |
| 20260506085414 | 55 | 299 | 1.7 | 1.7 | 0.00 | 0.00 | 0.00 | 88 | 1016.8 |
| 20260506084910 | 55 | 304 | 1.7 | 1.7 | 0.00 | 0.00 | 0.00 | 88 | 1017.2 |
| 20260506084407 | 55 | 304 | 0.9 | 0.9 | 0.00 | 0.00 | 0.00 | 89 | 1017.4 |
| 20260506083903 | 55 | 292 | 0.0 | 0.0 | 0.00 | 0.00 | 0.00 | 89 | 1017.4 |
| 20260506083401 | 55 | 345 | 0.9 | 0.9 | 0.00 | 0.00 | 0.00 | 89 | 1017.3 |
| 20260506082858 | 55 | 10 | 1.7 | 1.7 | 0.00 | 0.00 | 0.00 | 89 | 1017.6 |
| 20260506082355 | 55 | 11 | 1.7 | 1.7 | 0.00 | 0.00 | 0.00 | 89 | 1017.9 |
| 20260506081851 | 55 | 12 | 1.7 | 1.7 | 0.00 | 0.00 | 0.00 | 89 | 1018.0 |
| 20260506081349 | 55 | 11 | 2.6 | 4.3 | 0.00 | 0.00 | 0.00 | 89 | 1018.2 |
| 20260506080846 | 55 | 0 | 2.6 | 2.6 | 0.00 | 0.00 | 0.00 | 89 | 1017.9 |
| 20260506080343 | 55 | 11 | 2.6 | 2.6 | 0.00 | 0.00 | 0.00 | 88 | 1017.9 |
| 20260506073322 | 56 | 3 | 0.9 | 0.9 | 0.00 | 0.00 | 0.00 | 87 | 1017.4 |
| 20260506072819 | 56 | 337 | 1.7 | 1.7 | 0.00 | 0.00 | 0.00 | 87 | 1017.5 |
| 20260506072316 | 56 | 337 | 0.9 | 1.7 | 0.00 | 0.00 | 0.00 | 86 | 1017.5 |
| 20260506071813 | 56 | 337 | 1.7 | 1.7 | 0.00 | 0.00 | 0.00 | 86 | 1017.4 |
| 20260506071312 | 57 | 326 | 1.7 | 1.7 | 0.00 | 0.00 | 0.00 | 86 | 1017.3 |
| 20260506070808 | 57 | 321 | 0.9 | 0.9 | 0.00 | 0.00 | 0.00 | 86 | 1017.2 |
| 20260506070305 | 57 | 320 | 0.0 | 0.0 | 0.00 | 0.00 | 0.00 | 85 | 1017.1 |
| 20260506062242 | 58 | 295 | 0.0 | 0.0 | 0.00 | 0.00 | 0.00 | 83 | 1016.7 |
| 20260506061737 | 58 | 294 | 0.0 | 0.0 | 0.00 | 0.00 | 0.00 | 83 | 1016.6 |
| 20260506061235 | 58 | 294 | 0.0 | 0.0 | 0.00 | 0.00 | 0.00 | 83 | 1016.4 |
| 20260506060733 | 58 | 294 | 0.0 | 0.0 | 0.00 | 0.00 | 0.00 | 83 | 1016.6 |
| 20260506060230 | 58 | 294 | 0.9 | 0.9 | 0.00 | 0.00 | 0.00 | 83 | 1016.4 |
| 20260506051157 | 59 | 296 | 0.9 | 0.9 | 0.00 | 0.00 | 0.00 | 81 | 1016.5 |
| 20260506050655 | 60 | 295 | 0.9 | 1.7 | 0.00 | 0.00 | 0.00 | 80 | 1016.3 |
| 20260506050152 | 60 | 295 | 0.9 | 0.9 | 0.00 | 0.00 | 0.00 | 80 | 1016.2 |
| 20260506044643 | 60 | 303 | 1.7 | 1.7 | 0.00 | 0.00 | 0.00 | 78 | 1016.1 |
| 20260506044140 | 60 | 295 | 0.0 | 0.0 | 0.00 | 0.00 | 0.00 | 78 | 1015.8 |
| 20260506043637 | 60 | 295 | 0.0 | 0.9 | 0.00 | 0.00 | 0.00 | 77 | 1015.8 |
| 20260506043135 | 60 | 295 | 0.9 | 1.7 | 0.00 | 0.00 | 0.00 | 77 | 1016.1 |
| 20260506042634 | 61 | 295 | 0.9 | 0.9 | 0.00 | 0.00 | 0.00 | 76 | 1015.9 |
| 20260506042131 | 61 | 295 | 0.9 | 0.9 | 0.00 | 0.00 | 0.00 | 76 | 1016.0 |
| 20260506041630 | 61 | 294 | 0.9 | 1.7 | 0.00 | 0.00 | 0.00 | 75 | 1015.7 |
| 20260506041126 | 61 | 294 | 0.9 | 0.9 | 0.00 | 0.00 | 0.00 | 75 | 1015.5 |
| 20260506040624 | 61 | 295 | 0.0 | 0.0 | 0.00 | 0.00 | 0.00 | 74 | 1015.7 |
| 20260506040120 | 61 | 295 | 0.9 | 1.7 | 0.00 | 0.00 | 0.00 | 74 | 1015.9 |
| 20260506035617 | 61 | 296 | 0.9 | 0.9 | 0.00 | 0.00 | 0.00 | 73 | 1015.5 |
| 20260506035114 | 62 | 294 | 1.7 | 1.7 | 0.00 | 0.00 | 0.00 | 73 | 1015.4 |
| 20260506034611 | 62 | 305 | 0.9 | 0.9 | 0.00 | 0.00 | 0.00 | 73 | 1015.4 |
| 20260506034108 | 62 | 294 | 0.9 | 0.9 | 0.00 | 0.00 | 0.00 | 72 | 1015.2 |
| 20260506033605 | 62 | 294 | 1.7 | 1.7 | 0.00 | 0.00 | 0.00 | 72 | 1015.2 |
| 20260506033102 | 62 | 294 | 2.6 | 2.6 | 0.00 | 0.00 | 0.00 | 72 | 1015.2 |
| 20260506032600 | 62 | 290 | 1.7 | 1.7 | 0.00 | 0.00 | 0.00 | 72 | 1014.9 |
| 20260506032056 | 62 | 294 | 1.7 | 2.6 | 0.00 | 0.00 | 0.00 | 71 | 1015.0 |
| 20260506031554 | 63 | 290 | 1.7 | 2.6 | 0.00 | 0.00 | 0.00 | 71 | 1014.8 |
| 20260506031050 | 63 | 294 | 0.9 | 1.7 | 0.00 | 0.00 | 0.00 | 70 | 1014.9 |
| 20260506030549 | 63 | 323 | 0.9 | 1.7 | 0.00 | 0.00 | 0.00 | 70 | 1014.6 |
| 20260506030046 | 63 | 321 | 1.7 | 1.7 | 0.00 | 0.00 | 0.00 | 69 | 1014.8 |
| 20260506025543 | 64 | 302 | 1.7 | 1.7 | 0.00 | 0.00 | 0.00 | 69 | 1014.5 |
| 20260506025038 | 64 | 4 | 1.7 | 1.7 | 0.00 | 0.00 | 0.00 | 69 | 1014.7 |
| 20260506024536 | 64 | 3 | 2.6 | 2.6 | 0.00 | 0.00 | 0.00 | 68 | 1014.4 |
| 20260506024032 | 64 | 302 | 3.5 | 5.2 | 0.00 | 0.00 | 0.00 | 67 | 1014.6 |
| 20260506023528 | 64 | 324 | 2.6 | 2.6 | 0.00 | 0.00 | 0.00 | 67 | 1014.4 |
| 20260506023026 | 64 | 321 | 2.6 | 5.2 | 0.00 | 0.00 | 0.00 | 67 | 1014.4 |
| 20260506022523 | 65 | 353 | 2.6 | 4.3 | 0.00 | 0.00 | 0.00 | 67 | 1014.4 |
| 20260506022021 | 66 | 324 | 3.5 | 5.2 | 0.00 | 0.00 | 0.00 | 66 | 1014.4 |
| 20260506021518 | 66 | 352 | 2.6 | 2.6 | 0.00 | 0.00 | 0.00 | 66 | 1014.4 |
| 20260506021015 | 66 | 331 | 1.7 | 1.7 | 0.00 | 0.00 | 0.00 | 64 | 1014.2 |
| 20260506020513 | 66 | 346 | 1.7 | 2.6 | 0.00 | 0.00 | 0.00 | 64 | 1014.5 |
| 20260506020010 | 65 | 336 | 4.3 | 5.2 | 0.00 | 0.00 | 0.00 | 65 | 1014.2 |
| 20260506015507 | 66 | 323 | 0.9 | 0.9 | 0.00 | 0.00 | 0.00 | 65 | 1014.1 |
| 20260506015004 | 66 | 316 | 3.5 | 6.1 | 0.00 | 0.00 | 0.00 | 64 | 1014.1 |
| 20260506014502 | 67 | 294 | 1.7 | 1.7 | 0.00 | 0.00 | 0.00 | 63 | 1014.5 |
| 20260506013957 | 67 | 293 | 6.1 | 7.0 | 0.00 | 0.00 | 0.00 | 62 | 1014.4 |
| 20260506013455 | 67 | 3 | 2.6 | 4.3 | 0.00 | 0.00 | 0.00 | 63 | 1014.1 |
| 20260506012951 | 66 | 330 | 1.7 | 1.7 | 0.00 | 0.00 | 0.00 | 64 | 1014.5 |
| 20260506012448 | 67 | 304 | 6.1 | 7.8 | 0.00 | 0.00 | 0.00 | 63 | 1014.2 |
| 20260506011945 | 68 | 312 | 3.5 | 6.1 | 0.00 | 0.00 | 0.00 | 62 | 1014.4 |
| 20260506011442 | 68 | 340 | 1.7 | 1.7 | 0.00 | 0.00 | 0.00 | 62 | 1014.4 |
| 20260506010939 | 68 | 324 | 2.6 | 6.1 | 0.00 | 0.00 | 0.00 | 62 | 1014.4 |
| 20260506010438 | 67 | 315 | 1.7 | 1.7 | 0.00 | 0.00 | 0.00 | 63 | 1014.2 |
| 20260506005933 | 66 | 292 | 3.5 | 4.3 | 0.00 | 0.00 | 0.00 | 65 | 1014.2 |
| 20260506005432 | 68 | 297 | 6.1 | 7.8 | 0.00 | 0.00 | 0.00 | 61 | 1014.1 |
| 20260506004926 | 68 | 301 | 3.5 | 4.3 | 0.00 | 0.00 | 0.00 | 61 | 1014.5 |
| 20260506004425 | 67 | 335 | 2.6 | 2.6 | 0.00 | 0.00 | 0.00 | 62 | 1014.6 |
| 20260506003920 | 68 | 280 | 3.5 | 5.2 | 0.00 | 0.00 | 0.00 | 61 | 1014.2 |
| 20260506003417 | 67 | 274 | 3.5 | 4.3 | 0.00 | 0.00 | 0.00 | 62 | 1014.5 |
| 20260506002914 | 67 | 302 | 3.5 | 6.1 | 0.00 | 0.00 | 0.00 | 61 | 1014.2 |
| 20260506002410 | 67 | 291 | 5.2 | 7.0 | 0.00 | 0.00 | 0.00 | 62 | 1014.0 |
| 20260506001905 | 67 | 303 | 5.2 | 6.1 | 0.00 | 0.00 | 0.00 | 61 | 1014.4 |
| 20260506001403 | 67 | 302 | 5.2 | 6.1 | 0.00 | 0.00 | 0.00 | 61 | 1014.4 |
| 20260506000900 | 67 | 329 | 6.1 | 8.7 | 0.00 | 0.00 | 0.00 | 61 | 1014.2 |
| 20260506000358 | 68 | 287 | 4.3 | 5.2 | 0.00 | 0.00 | 0.00 | 61 | 1014.2 |
| 20260505235854 | 67 | 282 | 4.3 | 6.1 | 0.00 | 0.00 | 0.00 | 60 | 1014.2 |
| 20260505235352 | 68 | 302 | 5.2 | 7.0 | 0.00 | 0.00 | 0.00 | 61 | 1014.1 |
| 20260505234848 | 68 | 275 | 1.7 | 2.6 | 0.00 | 0.00 | 0.00 | 61 | 1013.9 |
| 20260505234346 | 67 | 309 | 4.3 | 5.2 | 0.00 | 0.00 | 0.00 | 63 | 1014.1 |
| 20260505233843 | 68 | 288 | 6.1 | 7.0 | 0.00 | 0.00 | 0.00 | 61 | 1014.1 |
| 20260505233341 | 67 | 285 | 2.6 | 2.6 | 0.00 | 0.00 | 0.00 | 63 | 1014.2 |
| 20260505232838 | 67 | 283 | 6.1 | 7.0 | 0.00 | 0.00 | 0.00 | 63 | 1014.2 |
| 20260505232336 | 68 | 306 | 6.1 | 7.8 | 0.00 | 0.00 | 0.00 | 61 | 1014.1 |
| 20260505231832 | 67 | 298 | 5.2 | 7.8 | 0.00 | 0.00 | 0.00 | 61 | 1014.2 |
| 20260505231330 | 68 | 292 | 4.3 | 5.2 | 0.00 | 0.00 | 0.00 | 61 | 1014.2 |
| 20260505230828 | 67 | 300 | 3.5 | 4.3 | 0.00 | 0.00 | 0.00 | 63 | 1014.0 |
| 20260505230325 | 66 | 256 | 5.2 | 6.1 | 0.00 | 0.00 | 0.00 | 62 | 1014.2 |
| 20260505225821 | 67 | 308 | 7.8 | 9.6 | 0.00 | 0.00 | 0.00 | 63 | 1014.0 |
| 20260505225319 | 66 | 321 | 6.1 | 7.8 | 0.00 | 0.00 | 0.00 | 63 | 1014.2 |
| 20260505224813 | 66 | 272 | 4.3 | 5.2 | 0.00 | 0.00 | 0.00 | 64 | 1014.2 |
| 20260505224312 | 66 | 283 | 2.6 | 4.3 | 0.00 | 0.00 | 0.00 | 63 | 1014.2 |
| 20260505223808 | 65 | 308 | 4.3 | 5.2 | 0.00 | 0.00 | 0.00 | 64 | 1014.2 |
| 20260505223306 | 66 | 292 | 7.8 | 8.7 | 0.00 | 0.00 | 0.00 | 64 | 1014.5 |
| 20260505222801 | 65 | 283 | 8.7 | 12.2 | 0.00 | 0.00 | 0.00 | 64 | 1014.2 |
| 20260505222257 | 65 | 347 | 3.5 | 5.2 | 0.00 | 0.00 | 0.00 | 64 | 1014.5 |
| 20260505221755 | 66 | 344 | 4.3 | 6.1 | 0.00 | 0.00 | 0.00 | 63 | 1014.4 |
| 20260505221251 | 65 | 281 | 5.2 | 7.0 | 0.00 | 0.00 | 0.00 | 66 | 1014.4 |
| 20260505220748 | 66 | 287 | 3.5 | 4.3 | 0.00 | 0.00 | 0.00 | 63 | 1014.5 |
| 20260505220245 | 66 | 313 | 4.3 | 7.0 | 0.00 | 0.00 | 0.00 | 64 | 1014.5 |
| 20260505215744 | 67 | 286 | 5.2 | 7.0 | 0.00 | 0.00 | 0.00 | 61 | 1014.4 |
| 20260505215241 | 66 | 304 | 7.0 | 7.8 | 0.00 | 0.00 | 0.00 | 63 | 1014.5 |
| 20260505214739 | 65 | 280 | 6.1 | 7.0 | 0.00 | 0.00 | 0.00 | 64 | 1014.6 |
| 20260505214236 | 66 | 340 | 2.6 | 2.6 | 0.00 | 0.00 | 0.00 | 63 | 1014.5 |
| 20260505213733 | 66 | 312 | 3.5 | 5.2 | 0.00 | 0.00 | 0.00 | 64 | 1014.2 |
| 20260505213230 | 65 | 288 | 6.1 | 7.0 | 0.00 | 0.00 | 0.00 | 64 | 1014.5 |
| 20260505212726 | 64 | 275 | 6.1 | 7.8 | 0.00 | 0.00 | 0.00 | 65 | 1014.7 |
| 20260505212224 | 64 | 308 | 5.2 | 7.0 | 0.00 | 0.00 | 0.00 | 65 | 1014.5 |
| 20260505211721 | 65 | 310 | 4.3 | 5.2 | 0.00 | 0.00 | 0.00 | 65 | 1014.5 |
| 20260505211218 | 64 | 286 | 6.1 | 8.7 | 0.00 | 0.00 | 0.00 | 65 | 1014.5 |
| 20260505210714 | 65 | 313 | 4.3 | 6.1 | 0.00 | 0.00 | 0.00 | 63 | 1014.7 |
| 20260505210211 | 65 | 304 | 2.6 | 2.6 | 0.00 | 0.00 | 0.00 | 64 | 1014.8 |
| 20260505205709 | 63 | 288 | 2.6 | 2.6 | 0.00 | 0.00 | 0.00 | 66 | 1014.7 |
| 20260505205207 | 64 | 286 | 5.2 | 6.1 | 0.00 | 0.00 | 0.00 | 65 | 1014.9 |
| 20260505204703 | 65 | 307 | 7.0 | 8.7 | 0.00 | 0.00 | 0.00 | 63 | 1014.8 |
| 20260505204201 | 64 | 299 | 6.1 | 7.0 | 0.00 | 0.00 | 0.00 | 64 | 1014.8 |
| 20260505203658 | 64 | 306 | 3.5 | 5.2 | 0.00 | 0.00 | 0.00 | 67 | 1014.9 |
| 20260505203154 | 65 | 349 | 3.5 | 4.3 | 0.00 | 0.00 | 0.00 | 63 | 1014.8 |
| 20260505202650 | 65 | 304 | 4.3 | 5.2 | 0.00 | 0.00 | 0.00 | 63 | 1014.8 |
| 20260505202147 | 64 | 12 | 2.6 | 4.3 | 0.00 | 0.00 | 0.00 | 64 | 1014.7 |
| 20260505201643 | 64 | 283 | 4.3 | 7.0 | 0.00 | 0.00 | 0.00 | 64 | 1015.0 |
| 20260505201141 | 63 | 350 | 5.2 | 7.0 | 0.00 | 0.00 | 0.00 | 64 | 1015.0 |
| 20260505200639 | 63 | 297 | 4.3 | 5.2 | 0.00 | 0.00 | 0.00 | 65 | 1014.9 |
| 20260505200136 | 64 | 299 | 4.3 | 6.1 | 0.00 | 0.00 | 0.00 | 64 | 1014.9 |
| 20260505195632 | 64 | 334 | 2.6 | 4.3 | 0.00 | 0.00 | 0.00 | 64 | 1015.0 |
| 20260505195129 | 63 | 296 | 4.3 | 5.2 | 0.00 | 0.00 | 0.00 | 67 | 1015.1 |
| 20260505194626 | 63 | 317 | 5.2 | 7.0 | 0.00 | 0.00 | 0.00 | 67 | 1014.9 |
| 20260505194122 | 63 | 303 | 2.6 | 4.3 | 0.00 | 0.00 | 0.00 | 68 | 1015.1 |
| 20260505193619 | 62 | 315 | 4.3 | 5.2 | 0.00 | 0.00 | 0.00 | 69 | 1015.3 |
| 20260505193116 | 62 | 324 | 4.3 | 5.2 | 0.00 | 0.00 | 0.00 | 67 | 1015.1 |
| 20260505192615 | 62 | 329 | 5.2 | 7.8 | 0.00 | 0.00 | 0.00 | 67 | 1015.2 |
| 20260505192112 | 61 | 284 | 4.3 | 5.2 | 0.00 | 0.00 | 0.00 | 70 | 1015.2 |
| 20260505191610 | 62 | 284 | 3.5 | 5.2 | 0.00 | 0.00 | 0.00 | 69 | 1015.0 |
| 20260505191107 | 62 | 308 | 1.7 | 1.7 | 0.00 | 0.00 | 0.00 | 68 | 1015.1 |
| 20260505190603 | 62 | 272 | 2.6 | 2.6 | 0.00 | 0.00 | 0.00 | 68 | 1015.3 |
| 20260505190058 | 62 | 316 | 5.2 | 6.1 | 0.00 | 0.00 | 0.00 | 69 | 1015.2 |
| 20260505185555 | 62 | 357 | 3.5 | 4.3 | 0.00 | 0.00 | 0.00 | 68 | 1015.1 |
| 20260505185051 | 61 | 14 | 6.1 | 7.8 | 0.00 | 0.00 | 0.00 | 68 | 1015.2 |
| 20260505184548 | 61 | 309 | 6.1 | 7.0 | 0.00 | 0.00 | 0.00 | 70 | 1015.2 |
| 20260505184045 | 61 | 296 | 7.0 | 7.0 | 0.00 | 0.00 | 0.00 | 68 | 1014.9 |
| 20260505183542 | 61 | 293 | 2.6 | 4.3 | 0.00 | 0.00 | 0.00 | 69 | 1014.8 |
| 20260505183039 | 60 | 335 | 5.2 | 6.1 | 0.00 | 0.00 | 0.00 | 68 | 1015.0 |
| 20260505182535 | 60 | 284 | 6.1 | 7.0 | 0.00 | 0.00 | 0.00 | 69 | 1015.2 |
| 20260505182032 | 60 | 325 | 1.7 | 1.7 | 0.00 | 0.00 | 0.00 | 71 | 1015.0 |
| 20260505181529 | 61 | 296 | 6.1 | 7.8 | 0.00 | 0.00 | 0.00 | 70 | 1014.9 |
| 20260505181026 | 60 | 308 | 8.7 | 9.6 | 0.00 | 0.00 | 0.00 | 71 | 1014.9 |
| 20260505180522 | 60 | 295 | 5.2 | 6.1 | 0.00 | 0.00 | 0.00 | 71 | 1014.7 |